createdAt,value
2022-07-31T00:00:20.393Z,99178.38
2022-07-31T00:02:22.387Z,99170.97
2022-07-31T00:04:24.250Z,99163.00
2022-07-31T00:06:26.032Z,99168.50
2022-07-31T00:08:27.949Z,99163.38
2022-07-31T00:10:30.114Z,99162.84
2022-07-31T00:12:32.415Z,99169.34
2022-07-31T00:14:34.291Z,99153.91
2022-07-31T00:16:36.113Z,99167.50
2022-07-31T00:18:38.003Z,99160.44
2022-07-31T00:20:39.876Z,99156.72
2022-07-31T00:22:43.194Z,99162.75
2022-07-31T00:24:45.109Z,99157.34
2022-07-31T00:26:46.875Z,99160.28
2022-07-31T00:28:54.854Z,99165.25
2022-07-31T00:30:56.682Z,99164.69
2022-07-31T00:33:01.603Z,99164.47
2022-07-31T00:35:03.767Z,99160.56
2022-07-31T00:37:05.818Z,99158.34
2022-07-31T00:39:07.814Z,99162.50
2022-07-31T00:41:09.778Z,99147.19
2022-07-31T00:43:13.157Z,99154.41
2022-07-31T00:45:14.952Z,99156.53
2022-07-31T00:47:23.829Z,99149.88
2022-07-31T00:49:27.497Z,99155.38
2022-07-31T00:51:40.275Z,99149.31
2022-07-31T00:53:42.495Z,99145.41
2022-07-31T00:55:51.948Z,99161.41
2022-07-31T00:57:53.994Z,99150.38
2022-07-31T00:59:55.844Z,99147.63
2022-07-31T01:01:58.672Z,99149.84
2022-07-31T01:04:00.567Z,99137.72
2022-07-31T01:06:03.609Z,99135.44
2022-07-31T01:08:05.805Z,99135.59
2022-07-31T01:10:10.818Z,99141.78
2022-07-31T01:12:21.312Z,99134.59
2022-07-31T01:14:29.837Z,99135.50
2022-07-31T01:16:36.940Z,99136.69
2022-07-31T01:18:41.254Z,99135.16
2022-07-31T01:20:45.745Z,99138.25
2022-07-31T01:23:16.394Z,99139.38
2022-07-31T01:25:53.260Z,99145.72
2022-07-31T01:28:01.337Z,99144.78
2022-07-31T01:30:04.965Z,99149.66
2022-07-31T01:32:14.928Z,99145.81
2022-07-31T01:34:23.234Z,99144.81
2022-07-31T01:36:34.786Z,99150.13
2022-07-31T01:38:45.698Z,99150.63
2022-07-31T01:40:54.723Z,99152.09
2022-07-31T01:43:27.256Z,99147.63
2022-07-31T01:45:30.908Z,99142.16
2022-07-31T01:47:35.362Z,99139.34
2022-07-31T01:49:38.905Z,99139.47
2022-07-31T01:51:45.016Z,99141.03
2022-07-31T01:53:47.464Z,99137.59
2022-07-31T01:56:03.291Z,99134.94
2022-07-31T01:58:10.713Z,99136.53
2022-07-31T02:00:33.262Z,99141.50
2022-07-31T02:02:36.787Z,99135.88
2022-07-31T02:04:47.183Z,99123.38
2022-07-31T02:06:51.277Z,99122.84
2022-07-31T02:08:55.782Z,99129.66
2022-07-31T02:11:01.289Z,99128.16
2022-07-31T02:13:06.994Z,99124.56
2022-07-31T02:15:13.015Z,99125.28
2022-07-31T02:17:22.599Z,99122.91
2022-07-31T02:19:55.384Z,99124.81
2022-07-31T02:22:03.254Z,99122.69
2022-07-31T02:24:06.579Z,99122.00
2022-07-31T02:26:09.122Z,99119.06
2022-07-31T02:28:15.275Z,99114.22
2022-07-31T02:30:18.471Z,99105.28
2022-07-31T02:32:25.364Z,99098.22
2022-07-31T02:34:29.955Z,99106.06
2022-07-31T02:36:33.674Z,99108.25
2022-07-31T02:38:36.423Z,99107.53
2022-07-31T02:40:40.345Z,99103.53
2022-07-31T02:42:46.589Z,99099.38
2022-07-31T02:44:49.902Z,99102.59
2022-07-31T02:46:52.207Z,99099.13
2022-07-31T02:48:55.972Z,99093.19
2022-07-31T02:50:59.467Z,99095.47
2022-07-31T02:53:01.630Z,99108.88
2022-07-31T02:55:04.204Z,99104.00
2022-07-31T02:57:06.763Z,99107.06
2022-07-31T02:59:09.688Z,99103.75
2022-07-31T03:01:34.507Z,99102.97
2022-07-31T03:03:36.424Z,99103.84
2022-07-31T03:05:38.296Z,99109.25
2022-07-31T03:07:40.075Z,99113.00
2022-07-31T03:09:41.890Z,99111.84
2022-07-31T03:12:07.104Z,99108.38
2022-07-31T03:14:12.158Z,99123.13
2022-07-31T03:16:15.161Z,99115.44
2022-07-31T03:18:18.932Z,99114.72
2022-07-31T03:20:21.771Z,99097.72
2022-07-31T03:22:24.113Z,99109.28
2022-07-31T03:24:27.090Z,99114.50
2022-07-31T03:26:29.100Z,99108.63
2022-07-31T03:28:31.412Z,99113.06
2022-07-31T03:30:33.697Z,99115.09
2022-07-31T03:32:36.610Z,99108.63
2022-07-31T03:34:38.526Z,99102.00
2022-07-31T03:36:40.639Z,99104.75
2022-07-31T03:38:46.481Z,99109.53
2022-07-31T03:41:01.175Z,99104.91
2022-07-31T03:43:04.329Z,99102.34
2022-07-31T03:45:08.026Z,99102.06
2022-07-31T03:47:16.593Z,99104.94
2022-07-31T03:49:19.715Z,99114.53
2022-07-31T03:51:21.733Z,99108.16
2022-07-31T03:53:25.289Z,99110.16
2022-07-31T03:55:27.703Z,99113.50
2022-07-31T03:57:31.370Z,99115.78
2022-07-31T03:59:38.580Z,99106.56
2022-07-31T04:01:57.345Z,99115.47
2022-07-31T04:04:29.521Z,99115.97
2022-07-31T04:06:34.417Z,99129.09
2022-07-31T04:08:38.147Z,99127.22
2022-07-31T04:10:40.109Z,99122.03
2022-07-31T04:12:44.108Z,99122.91
2022-07-31T04:14:46.229Z,99119.59
2022-07-31T04:16:48.364Z,99125.25
2022-07-31T04:18:51.108Z,99129.41
2022-07-31T04:20:53.928Z,99129.72
2022-07-31T04:22:55.874Z,99136.38
2022-07-31T04:25:24.260Z,99131.50
2022-07-31T04:28:04.833Z,99126.03
2022-07-31T04:30:08.617Z,99130.16
2022-07-31T04:32:10.621Z,99135.97
2022-07-31T04:34:18.741Z,99141.84
2022-07-31T04:36:30.497Z,99134.38
2022-07-31T04:38:34.250Z,99137.84
2022-07-31T04:40:36.290Z,99136.09
2022-07-31T04:42:38.150Z,99140.72
2022-07-31T04:44:40.054Z,99141.75
2022-07-31T04:46:44.167Z,99137.13
2022-07-31T04:48:46.273Z,99137.97
2022-07-31T04:50:51.805Z,99137.75
2022-07-31T04:52:54.241Z,99136.72
2022-07-31T04:54:59.306Z,99131.38
2022-07-31T04:57:02.621Z,99139.59
2022-07-31T04:59:07.889Z,99134.09
2022-07-31T05:01:11.669Z,99123.56
2022-07-31T05:03:16.820Z,99123.41
2022-07-31T05:05:19.747Z,99128.75
2022-07-31T05:07:23.295Z,99130.63
2022-07-31T05:09:26.094Z,99129.31
2022-07-31T05:11:35.459Z,99133.63
2022-07-31T05:13:37.345Z,99137.41
2022-07-31T05:15:39.207Z,99136.09
2022-07-31T05:17:41.082Z,99131.19
2022-07-31T05:20:15.416Z,99135.50
2022-07-31T05:22:36.163Z,99133.31
2022-07-31T05:24:47.717Z,99138.66
2022-07-31T05:26:50.002Z,99132.47
2022-07-31T05:28:58.297Z,99137.94
2022-07-31T05:31:01.413Z,99152.50
2022-07-31T05:33:05.461Z,99141.00
2022-07-31T05:35:08.031Z,99148.38
2022-07-31T05:37:12.057Z,99135.25
2022-07-31T05:39:17.624Z,99150.53
2022-07-31T05:41:38.509Z,99149.97
2022-07-31T05:44:00.664Z,99147.94
2022-07-31T05:46:08.241Z,99149.38
2022-07-31T05:48:10.404Z,99163.81
2022-07-31T05:50:12.289Z,99144.22
2022-07-31T05:52:14.532Z,99152.03
2022-07-31T05:54:16.607Z,99142.97
2022-07-31T05:56:36.806Z,99152.03
2022-07-31T05:58:38.764Z,99154.03
2022-07-31T06:00:41.477Z,99152.88
2022-07-31T06:02:43.291Z,99153.28
2022-07-31T06:05:05.595Z,99153.88
2022-07-31T06:07:08.354Z,99146.50
2022-07-31T06:09:10.320Z,99148.09
2022-07-31T06:11:17.243Z,99147.22
2022-07-31T06:13:19.490Z,99152.84
2022-07-31T06:15:23.689Z,99159.19
2022-07-31T06:17:40.363Z,99159.19
2022-07-31T06:20:01.072Z,99155.00
2022-07-31T06:22:03.175Z,99156.72
2022-07-31T06:24:06.909Z,99169.72
2022-07-31T06:26:17.635Z,99155.69
2022-07-31T06:28:20.386Z,99160.50
2022-07-31T06:30:31.546Z,99164.22
2022-07-31T06:32:34.689Z,99161.66
2022-07-31T06:34:36.606Z,99154.69
2022-07-31T06:36:38.641Z,99160.31
2022-07-31T06:38:43.281Z,99163.47
2022-07-31T06:41:08.166Z,99157.69
2022-07-31T06:43:17.964Z,99163.88
2022-07-31T06:45:52.626Z,99158.25
2022-07-31T06:48:20.733Z,99164.16
2022-07-31T06:50:27.924Z,99169.19
2022-07-31T06:52:42.830Z,99156.16
2022-07-31T06:54:47.882Z,99164.75
2022-07-31T06:56:49.932Z,99155.56
2022-07-31T06:58:51.832Z,99159.09
2022-07-31T07:00:53.696Z,99163.66
2022-07-31T07:02:55.638Z,99163.75
2022-07-31T07:05:05.860Z,99157.53
2022-07-31T07:07:09.030Z,99168.38
2022-07-31T07:09:10.881Z,99160.16
2022-07-31T07:11:13.158Z,99158.44
2022-07-31T07:13:15.559Z,99150.47
2022-07-31T07:15:17.522Z,99156.69
2022-07-31T07:17:19.525Z,99162.03
2022-07-31T07:19:21.946Z,99156.38
2022-07-31T07:21:24.173Z,99170.66
2022-07-31T07:23:26.398Z,99164.16
2022-07-31T07:25:51.716Z,99156.63
2022-07-31T07:27:53.886Z,99153.63
2022-07-31T07:29:56.618Z,99156.84
2022-07-31T07:32:00.002Z,99150.34
2022-07-31T07:34:06.027Z,99164.53
2022-07-31T07:36:08.125Z,99162.63
2022-07-31T07:38:27.269Z,99156.84
2022-07-31T07:40:29.789Z,99150.97
2022-07-31T07:42:32.145Z,99150.25
2022-07-31T07:44:34.171Z,99156.75
2022-07-31T07:46:36.207Z,99153.00
2022-07-31T07:48:39.020Z,99160.19
2022-07-31T07:50:52.842Z,99154.00
2022-07-31T07:53:03.606Z,99153.78
2022-07-31T07:55:24.393Z,99155.66
2022-07-31T07:57:45.653Z,99154.63
2022-07-31T08:00:26.205Z,99148.38
2022-07-31T08:02:36.341Z,99151.81
2022-07-31T08:04:39.524Z,99159.44
2022-07-31T08:06:41.574Z,99151.28
2022-07-31T08:08:43.454Z,99156.31
2022-07-31T08:10:45.720Z,99159.06
2022-07-31T08:13:16.923Z,99152.97
2022-07-31T08:15:37.471Z,99153.50
2022-07-31T08:17:47.287Z,99141.66
2022-07-31T08:19:51.421Z,99148.88
2022-07-31T08:21:53.634Z,99138.75
2022-07-31T08:23:56.508Z,99136.56
2022-07-31T08:25:58.294Z,99144.50
2022-07-31T08:28:00.598Z,99134.81
2022-07-31T08:30:05.855Z,99142.19
2022-07-31T08:32:08.013Z,99141.19
2022-07-31T08:34:42.029Z,99144.03
2022-07-31T08:36:44.516Z,99134.78
2022-07-31T08:38:47.266Z,99143.00
2022-07-31T08:41:07.813Z,99138.88
2022-07-31T08:43:31.072Z,99140.06
2022-07-31T08:45:32.142Z,99145.53
2022-07-31T08:47:49.179Z,99154.22
2022-07-31T08:49:58.707Z,99145.97
2022-07-31T08:52:02.088Z,99153.97
2022-07-31T08:54:26.194Z,99149.31
2022-07-31T08:56:28.906Z,99145.41
2022-07-31T08:58:33.970Z,99147.16
2022-07-31T09:00:40.753Z,99140.47
2022-07-31T09:02:44.974Z,99152.03
2022-07-31T09:04:52.992Z,99152.44
2022-07-31T09:07:00.071Z,99150.84
2022-07-31T09:09:02.256Z,99165.91
2022-07-31T09:11:09.858Z,99158.28
2022-07-31T09:13:18.042Z,99158.72
2022-07-31T09:15:24.282Z,99159.91
2022-07-31T09:17:34.531Z,99146.28
2022-07-31T09:19:52.720Z,99158.19
2022-07-31T09:22:08.462Z,99144.78
2022-07-31T09:24:14.375Z,99153.16
2022-07-31T09:26:16.726Z,99144.06
2022-07-31T09:28:23.305Z,99147.53
2022-07-31T09:30:27.353Z,99140.88
2022-07-31T09:32:49.412Z,99139.69
2022-07-31T09:35:17.626Z,99150.03
2022-07-31T09:37:25.202Z,99139.06
2022-07-31T09:39:57.197Z,99145.19
2022-07-31T09:42:16.394Z,99141.41
2022-07-31T09:44:47.083Z,99150.81
2022-07-31T09:46:50.325Z,99142.59
2022-07-31T09:48:59.808Z,99153.03
2022-07-31T09:51:06.248Z,99158.50
2022-07-31T09:53:08.973Z,99164.16
2022-07-31T09:55:16.978Z,99158.97
2022-07-31T09:57:21.869Z,99161.72
2022-07-31T09:59:29.949Z,99156.69
2022-07-31T10:01:36.596Z,99163.34
2022-07-31T10:03:40.937Z,99157.63
2022-07-31T10:05:43.740Z,99157.38
2022-07-31T10:07:46.847Z,99161.28
2022-07-31T10:09:57.366Z,99160.97
2022-07-31T10:12:42.073Z,99156.34
2022-07-31T10:14:47.192Z,99152.16
2022-07-31T10:16:54.644Z,99162.53
2022-07-31T10:19:17.005Z,99164.69
2022-07-31T10:21:42.585Z,99150.72
2022-07-31T10:23:52.836Z,99144.59
2022-07-31T10:25:58.485Z,99154.41
2022-07-31T10:28:01.636Z,99160.59
2022-07-31T10:30:05.543Z,99152.81
2022-07-31T10:32:09.457Z,99144.50
2022-07-31T10:34:19.865Z,99158.94
2022-07-31T10:36:29.857Z,99159.97
2022-07-31T10:38:51.158Z,99157.69
2022-07-31T10:41:41.255Z,99162.59
2022-07-31T10:43:51.149Z,99162.47
2022-07-31T10:46:33.801Z,99165.97
2022-07-31T10:48:54.734Z,99161.75
2022-07-31T10:51:15.320Z,99166.91
2022-07-31T10:53:51.631Z,99158.81
2022-07-31T10:56:18.194Z,99159.66
2022-07-31T10:58:57.357Z,99157.22
2022-07-31T11:01:19.364Z,99158.88
2022-07-31T11:03:41.823Z,99156.16
2022-07-31T11:06:03.249Z,99164.91
2022-07-31T11:08:48.813Z,99168.44
2022-07-31T11:11:33.964Z,99168.59
2022-07-31T11:13:56.172Z,99167.13
2022-07-31T11:16:18.241Z,99170.47
2022-07-31T11:18:38.220Z,99184.09
2022-07-31T11:20:40.746Z,99171.72
2022-07-31T11:22:43.133Z,99168.97
2022-07-31T11:24:58.677Z,99171.59
2022-07-31T11:27:00.520Z,99177.78
2022-07-31T11:30:00.740Z,99179.69
2022-07-31T11:31:30.074Z,99182.44
2022-07-31T11:33:41.942Z,99171.59
2022-07-31T11:35:44.930Z,99174.06
2022-07-31T11:37:58.037Z,99175.06
2022-07-31T11:40:01.907Z,99169.66
2022-07-31T11:42:05.052Z,99167.91
2022-07-31T11:44:09.612Z,99161.00
2022-07-31T11:46:12.049Z,99166.84
2022-07-31T11:48:19.492Z,99148.53
2022-07-31T11:50:21.518Z,99150.06
2022-07-31T11:52:31.220Z,99147.41
2022-07-31T11:54:39.608Z,99145.16
2022-07-31T11:56:41.474Z,99145.16
2022-07-31T11:58:54.777Z,99140.44
2022-07-31T12:00:59.023Z,99138.56
2022-07-31T12:03:00.986Z,99143.34
2022-07-31T12:05:04.291Z,99152.19
2022-07-31T12:07:07.753Z,99149.44
2022-07-31T12:10:00.925Z,99143.84
2022-07-31T12:11:31.802Z,99151.38
2022-07-31T12:13:34.047Z,99143.28
2022-07-31T12:15:35.990Z,99142.44
2022-07-31T12:17:37.917Z,99152.72
2022-07-31T12:19:39.746Z,99144.06
2022-07-31T12:21:42.136Z,99151.06
2022-07-31T12:23:52.032Z,99148.31
2022-07-31T12:25:54.105Z,99146.28
2022-07-31T12:27:56.187Z,99149.88
2022-07-31T12:29:58.353Z,99153.81
2022-07-31T12:32:00.886Z,99143.81
2022-07-31T12:34:02.686Z,99147.53
2022-07-31T12:36:12.113Z,99138.66
2022-07-31T12:38:40.556Z,99146.44
2022-07-31T12:40:43.216Z,99139.31
2022-07-31T12:42:45.181Z,99136.72
2022-07-31T12:44:54.069Z,99147.69
2022-07-31T12:46:56.256Z,99138.59
2022-07-31T12:48:58.289Z,99148.97
2022-07-31T12:51:01.532Z,99147.13
2022-07-31T12:53:04.860Z,99155.94
2022-07-31T12:55:07.122Z,99150.03
2022-07-31T12:57:09.153Z,99146.75
2022-07-31T12:59:11.530Z,99154.28
2022-07-31T13:01:13.334Z,99145.78
2022-07-31T13:03:15.561Z,99152.84
2022-07-31T13:05:17.881Z,99156.22
2022-07-31T13:07:19.763Z,99146.75
2022-07-31T13:09:21.945Z,99147.59
2022-07-31T13:11:25.790Z,99150.66
2022-07-31T13:13:27.987Z,99140.22
2022-07-31T13:15:30.187Z,99141.34
2022-07-31T13:17:32.084Z,99138.28
2022-07-31T13:19:33.906Z,99143.75
2022-07-31T13:21:42.494Z,99145.19
2022-07-31T13:23:55.685Z,99127.88
2022-07-31T13:25:59.867Z,99128.84
2022-07-31T13:28:01.773Z,99128.84
2022-07-31T13:30:04.451Z,99128.00
2022-07-31T13:32:06.681Z,99129.31
2022-07-31T13:34:08.696Z,99125.56
2022-07-31T13:36:10.938Z,99132.06
2022-07-31T13:38:14.716Z,99135.69
2022-07-31T13:40:16.557Z,99138.06
2022-07-31T13:42:18.583Z,99144.84
2022-07-31T13:44:20.471Z,99141.84
2022-07-31T13:46:23.568Z,99155.09
2022-07-31T13:48:25.435Z,99154.13
2022-07-31T13:50:27.255Z,99155.75
2022-07-31T13:52:29.048Z,99138.56
2022-07-31T13:54:30.874Z,99150.00
2022-07-31T13:56:38.951Z,99147.97
2022-07-31T13:58:44.954Z,99149.56
2022-07-31T14:00:47.728Z,99141.50
2022-07-31T14:02:50.145Z,99146.28
2022-07-31T14:04:51.930Z,99147.28
2022-07-31T14:06:54.646Z,99147.88
2022-07-31T14:08:56.474Z,99147.75
2022-07-31T14:10:58.726Z,99150.19
2022-07-31T14:13:00.511Z,99155.13
2022-07-31T14:15:04.392Z,99161.47
2022-07-31T14:17:06.277Z,99157.00
2022-07-31T14:19:08.565Z,99160.00
2022-07-31T14:21:10.383Z,99170.13
2022-07-31T14:23:12.295Z,99165.41
2022-07-31T14:25:14.190Z,99175.81
2022-07-31T14:27:16.032Z,99170.63
2022-07-31T14:29:18.095Z,99164.72
2022-07-31T14:31:19.904Z,99162.13
2022-07-31T14:33:21.719Z,99150.63
2022-07-31T14:35:23.661Z,99136.19
2022-07-31T14:37:25.616Z,99144.84
2022-07-31T14:39:27.477Z,99144.13
2022-07-31T14:41:29.319Z,99136.81
2022-07-31T14:43:31.157Z,99147.63
2022-07-31T14:45:32.918Z,99142.16
2022-07-31T14:47:55.157Z,99136.66
2022-07-31T14:50:07.742Z,99133.34
2022-07-31T14:52:11.857Z,99129.91
2022-07-31T14:54:13.752Z,99126.00
2022-07-31T14:56:27.273Z,99134.53
2022-07-31T14:58:57.470Z,99135.78
2022-07-31T15:00:59.948Z,99130.72
2022-07-31T15:03:01.779Z,99129.25
2022-07-31T15:06:49.373Z,99122.94
2022-07-31T15:07:35.802Z,99122.94
2022-07-31T15:09:39.376Z,99122.03
2022-07-31T15:12:00.382Z,99120.16
2022-07-31T15:14:03.455Z,99117.66
2022-07-31T15:16:05.599Z,99121.41
2022-07-31T15:18:07.584Z,99117.91
2022-07-31T15:20:10.877Z,99125.84
2022-07-31T15:22:17.159Z,99119.81
2022-07-31T15:24:19.442Z,99125.31
2022-07-31T15:26:21.281Z,99119.19
2022-07-31T15:28:23.101Z,99108.50
2022-07-31T15:30:25.107Z,99119.59
2022-07-31T15:32:26.965Z,99114.97
2022-07-31T15:34:29.529Z,99103.56
2022-07-31T15:36:31.334Z,99103.41
2022-07-31T15:38:33.080Z,99098.22
2022-07-31T15:40:35.408Z,99104.00
2022-07-31T15:42:40.560Z,99108.94
2022-07-31T15:44:42.689Z,99098.22
2022-07-31T15:46:44.520Z,99105.75
2022-07-31T15:48:46.469Z,99096.69
2022-07-31T15:50:48.303Z,99100.81
2022-07-31T15:52:50.285Z,99101.69
2022-07-31T15:54:52.934Z,99101.53
2022-07-31T15:56:54.841Z,99102.41
2022-07-31T15:58:56.557Z,99096.91
2022-07-31T16:00:58.978Z,99097.38
2022-07-31T16:03:01.836Z,99100.09
2022-07-31T16:05:12.100Z,99099.69
2022-07-31T16:08:32.333Z,99107.66
2022-07-31T16:10:02.483Z,99098.53
2022-07-31T16:12:08.028Z,99104.72
2022-07-31T16:14:10.782Z,99103.56
2022-07-31T16:16:12.617Z,99093.44
2022-07-31T16:18:18.124Z,99096.91
2022-07-31T16:20:26.652Z,99108.91
2022-07-31T16:22:29.903Z,99096.81
2022-07-31T16:24:31.812Z,99100.97
2022-07-31T16:26:37.027Z,99106.75
2022-07-31T16:28:39.642Z,99105.53
2022-07-31T16:30:42.438Z,99097.72
2022-07-31T16:32:44.651Z,99102.78
2022-07-31T16:34:51.651Z,99092.09
2022-07-31T16:36:54.466Z,99102.75
2022-07-31T16:39:19.026Z,99097.72
2022-07-31T16:41:18.157Z,99097.03
2022-07-31T16:43:50.706Z,99100.34
2022-07-31T16:45:42.414Z,99106.13
2022-07-31T16:47:45.860Z,99103.09
2022-07-31T16:49:54.095Z,99098.47
2022-07-31T16:51:55.942Z,99108.44
2022-07-31T16:54:13.051Z,99101.06
2022-07-31T16:56:17.970Z,99100.34
2022-07-31T16:58:24.520Z,99102.25
2022-07-31T17:00:26.812Z,99095.03
2022-07-31T17:02:28.625Z,99097.94
2022-07-31T17:04:30.682Z,99099.81
2022-07-31T17:06:37.108Z,99101.38
2022-07-31T17:08:40.087Z,99095.91
2022-07-31T17:10:41.999Z,99101.53
2022-07-31T17:12:43.747Z,99105.84
2022-07-31T17:14:45.790Z,99105.84
2022-07-31T17:16:49.370Z,99109.28
2022-07-31T17:18:52.681Z,99111.31
2022-07-31T17:20:56.737Z,99115.09
2022-07-31T17:22:59.978Z,99123.13
2022-07-31T17:25:07.371Z,99113.81
2022-07-31T17:27:10.209Z,99115.41
2022-07-31T17:29:13.093Z,99118.13
2022-07-31T17:31:14.949Z,99116.69
2022-07-31T17:33:16.715Z,99119.00
2022-07-31T17:35:19.732Z,99109.75
2022-07-31T17:37:21.805Z,99115.53
2022-07-31T17:39:26.227Z,99112.06
2022-07-31T17:41:33.102Z,99122.91
2022-07-31T17:43:50.615Z,99129.78
2022-07-31T17:46:05.747Z,99133.25
2022-07-31T17:48:11.050Z,99134.00
2022-07-31T17:50:13.194Z,99128.69
2022-07-31T17:52:15.365Z,99137.59
2022-07-31T17:54:17.259Z,99124.19
2022-07-31T17:56:19.409Z,99129.53
2022-07-31T17:58:22.372Z,99124.91
2022-07-31T18:00:27.324Z,99128.78
2022-07-31T18:02:34.497Z,99124.78
2022-07-31T18:04:37.806Z,99135.56
2022-07-31T18:06:40.210Z,99137.59
2022-07-31T18:08:42.073Z,99132.41
2022-07-31T18:10:54.023Z,99134.31
2022-07-31T18:12:57.280Z,99141.66
2022-07-31T18:15:00.446Z,99140.34
2022-07-31T18:17:02.493Z,99139.03
2022-07-31T18:19:04.405Z,99138.75
2022-07-31T18:21:06.246Z,99144.97
2022-07-31T18:23:10.301Z,99140.50
2022-07-31T18:25:12.508Z,99146.13
2022-07-31T18:27:14.280Z,99144.41
2022-07-31T18:29:17.166Z,99144.28
2022-07-31T18:31:32.281Z,99146.63
2022-07-31T18:33:36.301Z,99147.63
2022-07-31T18:35:38.306Z,99142.41
2022-07-31T18:37:40.572Z,99152.09
2022-07-31T18:39:48.209Z,99152.22
2022-07-31T18:41:51.450Z,99165.78
2022-07-31T18:43:53.740Z,99162.59
2022-07-31T18:45:55.574Z,99163.47
2022-07-31T18:47:57.499Z,99171.13
2022-07-31T18:51:01.207Z,99173.28
2022-07-31T18:52:21.643Z,99173.00
2022-07-31T18:54:23.449Z,99171.41
2022-07-31T18:56:25.594Z,99184.09
2022-07-31T18:58:27.390Z,99181.94
2022-07-31T19:00:29.214Z,99178.34
2022-07-31T19:02:31.369Z,99192.19
2022-07-31T19:04:33.402Z,99182.06
2022-07-31T19:06:35.260Z,99183.41
2022-07-31T19:08:37.127Z,99193.63
2022-07-31T19:10:38.972Z,99195.78
2022-07-31T19:12:41.201Z,99197.66
2022-07-31T19:14:43.422Z,99201.69
2022-07-31T19:16:45.152Z,99202.56
2022-07-31T19:18:50.389Z,99194.50
2022-07-31T19:21:00.065Z,99200.28
2022-07-31T19:23:14.343Z,99202.16
2022-07-31T19:25:16.156Z,99202.16
2022-07-31T19:27:18.194Z,99208.06
2022-07-31T19:29:20.935Z,99209.91
2022-07-31T19:31:23.060Z,99204.31
2022-07-31T19:33:24.925Z,99214.09
2022-07-31T19:35:27.385Z,99216.84
2022-07-31T19:37:29.142Z,99213.38
2022-07-31T19:39:31.292Z,99210.09
2022-07-31T19:41:34.381Z,99217.44
2022-07-31T19:43:36.325Z,99216.28
2022-07-31T19:46:00.496Z,99211.53
2022-07-31T19:48:00.018Z,99208.63
2022-07-31T19:50:02.022Z,99215.25
2022-07-31T19:52:04.136Z,99210.09
2022-07-31T19:54:06.127Z,99220.31
2022-07-31T19:56:08.676Z,99216.97
2022-07-31T19:58:11.016Z,99214.25
2022-07-31T20:00:13.432Z,99215.56
2022-07-31T20:02:16.941Z,99217.28
2022-07-31T20:04:19.043Z,99222.91
2022-07-31T20:06:21.840Z,99223.22
2022-07-31T20:08:25.834Z,99220.47
2022-07-31T20:10:29.203Z,99220.56
2022-07-31T20:12:31.550Z,99221.72
2022-07-31T20:14:33.392Z,99231.09
2022-07-31T20:16:35.485Z,99216.53
2022-07-31T20:18:37.269Z,99219.72
2022-07-31T20:20:39.418Z,99220.59
2022-07-31T20:22:41.487Z,99220.00
2022-07-31T20:24:43.329Z,99220.31
2022-07-31T20:26:45.181Z,99222.19
2022-07-31T20:28:47.185Z,99218.97
2022-07-31T20:30:49.254Z,99224.63
2022-07-31T20:32:52.876Z,99215.69
2022-07-31T20:34:54.663Z,99222.31
2022-07-31T20:36:58.345Z,99227.91
2022-07-31T20:39:01.532Z,99225.47
2022-07-31T20:41:03.320Z,99221.16
2022-07-31T20:43:05.117Z,99225.63
2022-07-31T20:45:07.737Z,99232.09
2022-07-31T20:47:09.529Z,99234.41
2022-07-31T20:49:27.227Z,99229.50
2022-07-31T20:51:34.869Z,99224.88
2022-07-31T20:53:36.757Z,99226.47
2022-07-31T20:55:38.552Z,99229.09
2022-07-31T20:57:40.459Z,99226.91
2022-07-31T20:59:42.256Z,99231.69
2022-07-31T21:01:44.112Z,99230.66
2022-07-31T21:03:46.579Z,99226.78
2022-07-31T21:05:48.890Z,99229.38
2022-07-31T21:07:50.687Z,99225.91
2022-07-31T21:09:52.575Z,99226.03
2022-07-31T21:11:54.453Z,99219.72
2022-07-31T21:13:56.252Z,99216.53
2022-07-31T21:15:58.036Z,99221.59
2022-07-31T21:17:59.835Z,99204.44
2022-07-31T21:20:07.225Z,99208.31
2022-07-31T21:22:08.950Z,99211.34
2022-07-31T21:24:11.029Z,99215.97
2022-07-31T21:26:14.509Z,99216.97
2022-07-31T21:28:16.695Z,99214.22
2022-07-31T21:30:18.633Z,99214.69
2022-07-31T21:32:20.839Z,99216.69
2022-07-31T21:34:23.047Z,99208.31
2022-07-31T21:36:25.236Z,99212.94
2022-07-31T21:38:27.340Z,99208.19
2022-07-31T21:40:30.130Z,99212.06
2022-07-31T21:42:32.474Z,99212.91
2022-07-31T21:44:39.515Z,99216.25
2022-07-31T21:46:48.177Z,99216.53
2022-07-31T21:48:54.501Z,99227.94
2022-07-31T21:50:58.450Z,99221.31
2022-07-31T21:53:01.434Z,99229.53
2022-07-31T21:55:04.571Z,99225.03
2022-07-31T21:57:06.359Z,99221.44
2022-07-31T21:59:08.166Z,99225.47
2022-07-31T22:01:10.984Z,99232.53
2022-07-31T22:03:12.970Z,99228.22
2022-07-31T22:05:33.316Z,99229.66
2022-07-31T22:07:49.727Z,99228.66
2022-07-31T22:09:51.778Z,99230.66
2022-07-31T22:12:01.729Z,99229.78
2022-07-31T22:14:03.816Z,99238.59
2022-07-31T22:16:06.855Z,99235.13
2022-07-31T22:18:09.025Z,99237.28
2022-07-31T22:20:11.592Z,99235.13
2022-07-31T22:22:13.557Z,99241.63
2022-07-31T22:24:15.662Z,99242.47
2022-07-31T22:26:17.620Z,99239.88
2022-07-31T22:28:21.205Z,99246.22
2022-07-31T22:30:27.920Z,99246.50
2022-07-31T22:32:31.588Z,99253.72
2022-07-31T22:34:37.437Z,99249.97
2022-07-31T22:36:40.092Z,99246.78
2022-07-31T22:38:44.111Z,99250.25
2022-07-31T22:40:46.029Z,99245.75
2022-07-31T22:42:56.023Z,99245.94
2022-07-31T22:45:00.058Z,99247.63
2022-07-31T22:47:02.289Z,99247.06
2022-07-31T22:49:05.952Z,99250.97
2022-07-31T22:51:08.207Z,99250.97
2022-07-31T22:53:10.055Z,99244.19
2022-07-31T22:55:13.629Z,99251.25
2022-07-31T22:57:16.303Z,99257.59
2022-07-31T22:59:18.081Z,99249.78
2022-07-31T23:01:19.947Z,99254.69
2022-07-31T23:03:22.009Z,99248.94
2022-07-31T23:05:23.844Z,99252.69
2022-07-31T23:07:25.554Z,99246.06
2022-07-31T23:09:27.456Z,99252.13
2022-07-31T23:11:29.554Z,99253.97
2022-07-31T23:13:31.300Z,99251.41
2022-07-31T23:15:33.225Z,99252.25
2022-07-31T23:17:35.085Z,99243.31
2022-07-31T23:19:37.066Z,99251.09
2022-07-31T23:21:38.872Z,99252.69
2022-07-31T23:23:40.752Z,99247.50
2022-07-31T23:25:51.064Z,99246.19
2022-07-31T23:27:53.076Z,99252.22
2022-07-31T23:29:54.875Z,99262.59
2022-07-31T23:31:56.842Z,99263.16
2022-07-31T23:33:58.606Z,99263.88
2022-07-31T23:36:00.974Z,99254.09
2022-07-31T23:38:03.036Z,99263.16
2022-07-31T23:40:05.551Z,99262.13
2022-07-31T23:42:26.112Z,99264.75
2022-07-31T23:44:27.933Z,99260.50
2022-07-31T23:46:30.143Z,99266.56
2022-07-31T23:48:35.390Z,99258.91
2022-07-31T23:50:37.772Z,99255.81
2022-07-31T23:52:39.595Z,99258.53
2022-07-31T23:54:41.367Z,99263.88
2022-07-31T23:56:43.432Z,99266.25
2022-07-31T23:58:45.253Z,99261.81
